Time,TemperatureF,DewpointF,PressureIn,WindDirection,WindDirectionDegrees,WindSpeedMPH,WindSpeedGustMPH,Humidity,HourlyPrecipIn,Conditions,Clouds,dailyrainin,SoftwareType,DateUTC
2013-02-20 00:32:00,37.0,33.0,29.58,NW,306,1.0,-999.0,85,-99.99,,,-99.99,,2013-02-20 08:32:00,
2013-02-20 00:42:00,37.0,33.0,29.58,NW,306,1.0,-999.0,85,-99.99,,,-99.99,,2013-02-20 08:42:00,
2013-02-20 00:52:00,37.0,33.0,29.58,NW,306,1.0,-999.0,85,-99.99,,,-99.99,,2013-02-20 08:52:00,
2013-02-20 01:01:00,37.0,33.0,29.58,NW,306,1.0,-999.0,85,-99.99,,,-99.99,,2013-02-20 09:01:00,
2013-02-20 03:32:00,36.0,31.0,29.61,WNW,286,1.0,-999.0,82,-99.99,,,-99.99,,2013-02-20 11:32:00,
2013-02-20 03:42:00,36.0,31.0,29.61,WNW,286,1.0,-999.0,82,-99.99,,,-99.99,,2013-02-20 11:42:00,
2013-02-20 03:52:00,36.0,31.0,29.61,WNW,286,1.0,-999.0,82,-99.99,,,-99.99,,2013-02-20 11:52:00,
2013-02-20 04:01:00,36.0,31.0,29.61,WNW,286,1.0,-999.0,82,-99.99,,,-99.99,,2013-02-20 12:01:00,
2013-02-20 06:32:00,36.0,30.0,29.66,West,261,1.0,-999.0,78,-99.99,,,-99.99,,2013-02-20 14:32:00,
2013-02-20 06:42:00,36.0,30.0,29.66,West,261,1.0,-999.0,78,-99.99,,,-99.99,,2013-02-20 14:42:00,
2013-02-20 06:52:00,36.0,30.0,29.66,West,261,1.0,-999.0,78,-99.99,,,-99.99,,2013-02-20 14:52:00,
2013-02-20 07:01:00,36.0,30.0,29.66,West,261,1.0,-999.0,78,-99.99,,,-99.99,,2013-02-20 15:01:00,
2013-02-20 09:32:00,41.0,34.0,29.73,WSW,255,1.0,-999.0,75,-99.99,,,-99.99,,2013-02-20 17:32:00,
2013-02-20 09:42:00,41.0,34.0,29.73,WSW,255,1.0,-999.0,75,-99.99,,,-99.99,,2013-02-20 17:42:00,
2013-02-20 09:52:00,41.0,34.0,29.73,WSW,255,1.0,-999.0,75,-99.99,,,-99.99,,2013-02-20 17:52:00,
2013-02-20 10:02:00,41.0,34.0,29.73,WSW,255,1.0,-999.0,75,-99.99,,,-99.99,,2013-02-20 18:02:00,
2013-02-20 12:31:00,53.0,32.0,29.75,WSW,240,4.0,-999.0,44,-99.99,,,-99.99,,2013-02-20 20:31:00,
2013-02-20 12:41:00,53.0,32.0,29.75,WSW,240,4.0,-999.0,44,-99.99,,,-99.99,,2013-02-20 20:41:00,
2013-02-20 12:51:00,53.0,32.0,29.75,WSW,240,4.0,-999.0,44,-99.99,,,-99.99,,2013-02-20 20:51:00,
2013-02-20 13:01:00,53.0,32.0,29.75,WSW,240,4.0,-999.0,44,-99.99,,,-99.99,,2013-02-20 21:01:00,
2013-02-20 15:32:00,58.0,31.0,29.72,South,180,3.0,-999.0,36,-99.99,,,-99.99,,2013-02-20 23:32:00,
2013-02-20 15:42:00,58.0,31.0,29.72,South,180,3.0,-999.0,36,-99.99,,,-99.99,,2013-02-20 23:42:00,
2013-02-20 15:52:00,58.0,31.0,29.72,South,180,3.0,-999.0,36,-99.99,,,-99.99,,2013-02-20 23:52:00,
2013-02-20 16:02:00,58.0,31.0,29.72,South,180,3.0,-999.0,36,-99.99,,,-99.99,,2013-02-21 00:02:00,
2013-02-20 18:32:00,52.0,36.0,29.75,WNW,300,0.0,-999.0,55,-99.99,,,-99.99,,2013-02-21 02:32:00,
2013-02-20 18:42:00,52.0,36.0,29.75,WNW,300,0.0,-999.0,55,-99.99,,,-99.99,,2013-02-21 02:42:00,
2013-02-20 18:52:00,52.0,36.0,29.75,WNW,300,0.0,-999.0,55,-99.99,,,-99.99,,2013-02-21 02:52:00,
2013-02-20 19:01:00,52.0,36.0,29.75,WNW,300,0.0,-999.0,55,-99.99,,,-99.99,,2013-02-21 03:01:00,
2013-02-20 21:37:00,45.0,35.0,29.80,North,360,0.0,-999.0,69,-99.99,,,-99.99,,2013-02-21 05:37:00,
2013-02-20 21:46:00,45.0,35.0,29.80,North,360,0.0,-999.0,69,-99.99,,,-99.99,,2013-02-21 05:46:00,
2013-02-20 21:58:00,45.0,35.0,29.80,North,360,0.0,-999.0,69,-99.99,,,-99.99,,2013-02-21 05:58:00,
2013-02-20 22:01:00,45.0,35.0,29.80,North,360,0.0,-999.0,69,-99.99,,,-99.99,,2013-02-21 06:01:00,